KSCF/SCF METAR and TAF weather

Enter ICAO airport designator
Station Type Date Time Source
KSCF METAR 2019/06/27 11:35 UTC NOAA

KSCF 271135Z AUTO 13011KT 8SM CLR 29/25 A3008 RMK A01


Station Type Date Time Source
KSCF Decoded METAR 2019/06/27 11:35 UTC NOAA

South Marsh 268, LA, United States (KSCF) 29-06-57N 091-52-16W
Jun 27, 2019 - 07:35 AM EDT / 2019.06.27 1135 UTC
Wind: from the SE (130 degrees) at 13 MPH (11 KT):0
Visibility: 8 mile(s):0
Sky conditions: clear
Temperature: 84 F (29 C)
Dew Point: 77 F (25 C)
Relative Humidity: 79%
Pressure (altimeter): 30.08 in. Hg (1018 hPa)
ob: KSCF 271135Z AUTO 13011KT 8SM CLR 29/25 A3008 RMK A01
cycle: 11

Station Type Date Time Source
KSCF TAF UTC NOAA

Error!

Example: see airport list